DAL210 FACT-KATL
Flight info
| Callsign | DAL210 |
|---|---|
| Flight time | N/A |
| Altitude | 30000 |
| Route | IMSOM1A IMSOM UQ36 APKIN UQ15 OKDOG DCT 30S010E/N0489F320 26S005E 22S000W 16S005W 10S010W 05S015W/N0493F340 00N020W DCT BUVUK/N0485F360 UL435 BUTUX/M083F360 L435 FIVZE/M083F380 L435 JAINS/N0477F380 AR12 DEDDY DCT HOTHH JJEDI4 |
| Aircraft | A339/H-SADE1E2E3GHIJ3J5M1P2RWXY/LB2D1 |
Departure
| Time | 2026-05-05 00:57 |
|---|---|
| Airport | Cape Town International Airport (FACT) |
Arrival
| Time | N/A |
|---|---|
| Airport | Hartsfield Jackson Atlanta International Airport (KATL) |
| Time | Latitude | Longitude | Altitude | Speed | Heading |
|---|---|---|---|---|---|
| 2026-05-05 00:26 | -33.96773 | 18.59752 | 160 ft | 0 kts | 256° |
| 2026-05-05 00:47 | -33.96768 | 18.59777 | 160 ft | 3 kts | 256° |
| 2026-05-05 00:47 | -33.96762 | 18.59805 | 160 ft | 3 kts | 256° |
| 2026-05-05 00:47 | -33.96758 | 18.59827 | 160 ft | 3 kts | 248° |
| 2026-05-05 00:47 | -33.96756 | 18.59845 | 160 ft | 3 kts | 198° |
| 2026-05-05 00:48 | -33.96740 | 18.59848 | 160 ft | 3 kts | 165° |
| 2026-05-05 00:48 | -33.96716 | 18.59840 | 160 ft | 3 kts | 165° |
| 2026-05-05 00:48 | -33.96704 | 18.59836 | 160 ft | 0 kts | 165° |
| 2026-05-05 00:50 | -33.96714 | 18.59839 | 160 ft | 3 kts | 165° |
| 2026-05-05 00:51 | -33.96748 | 18.59850 | 160 ft | 6 kts | 165° |
| 2026-05-05 00:51 | -33.96786 | 18.59863 | 160 ft | 6 kts | 163° |
| 2026-05-05 00:51 | -33.96832 | 18.59879 | 160 ft | 8 kts | 165° |
| 2026-05-05 00:51 | -33.96907 | 18.59901 | 160 ft | 13 kts | 166° |
| 2026-05-05 00:52 | -33.96998 | 18.59931 | 160 ft | 15 kts | 165° |
| 2026-05-05 00:52 | -33.97106 | 18.59961 | 160 ft | 16 kts | 171° |
| 2026-05-05 00:52 | -33.97214 | 18.59990 | 160 ft | 16 kts | 166° |
| 2026-05-05 00:52 | -33.97318 | 18.60022 | 160 ft | 15 kts | 165° |
| 2026-05-05 00:53 | -33.97419 | 18.60055 | 160 ft | 15 kts | 164° |
| 2026-05-05 00:53 | -33.97515 | 18.60092 | 160 ft | 14 kts | 158° |
| 2026-05-05 00:53 | -33.97605 | 18.60142 | 160 ft | 14 kts | 158° |
| 2026-05-05 00:53 | -33.97710 | 18.60189 | 160 ft | 17 kts | 161° |
| 2026-05-05 00:54 | -33.97821 | 18.60235 | 160 ft | 17 kts | 161° |
| 2026-05-05 00:54 | -33.97948 | 18.60288 | 160 ft | 20 kts | 161° |
| 2026-05-05 00:54 | -33.98075 | 18.60345 | 160 ft | 19 kts | 160° |
| 2026-05-05 00:54 | -33.98197 | 18.60396 | 160 ft | 18 kts | 161° |
| 2026-05-05 00:55 | -33.98316 | 18.60446 | 160 ft | 18 kts | 160° |
| 2026-05-05 00:55 | -33.98431 | 18.60498 | 160 ft | 18 kts | 160° |
| 2026-05-05 00:55 | -33.98562 | 18.60554 | 160 ft | 21 kts | 160° |
| 2026-05-05 00:55 | -33.98697 | 18.60612 | 160 ft | 20 kts | 160° |
| 2026-05-05 00:56 | -33.98799 | 18.60699 | 160 ft | 16 kts | 104° |
| 2026-05-05 00:56 | -33.98778 | 18.60823 | 161 ft | 14 kts | 71° |
| 2026-05-05 00:56 | -33.98705 | 18.60866 | 160 ft | 12 kts | 353° |
| 2026-05-05 00:56 | -33.98620 | 18.60842 | 159 ft | 14 kts | 346° |
| 2026-05-05 00:57 | -33.98386 | 18.60767 | 160 ft | 68 kts | 345° |
| 2026-05-05 00:57 | -33.97694 | 18.60565 | 159 ft | 134 kts | 347° |
| 2026-05-05 00:57 | -33.96640 | 18.60232 | 177 ft | 180 kts | 346° |
| 2026-05-05 00:57 | -33.95419 | 18.59845 | 764 ft | 177 kts | 346° |
| 2026-05-05 00:58 | -33.94258 | 18.59357 | 1377 ft | 182 kts | 340° |
| 2026-05-05 00:58 | -33.93044 | 18.58829 | 2011 ft | 185 kts | 339° |
| 2026-05-05 00:58 | -33.91830 | 18.58320 | 2714 ft | 184 kts | 337° |
| 2026-05-05 00:58 | -33.90858 | 18.57416 | 3447 ft | 172 kts | 308° |
| 2026-05-05 00:59 | -33.90141 | 18.56269 | 4103 ft | 173 kts | 305° |
| 2026-05-05 00:59 | -33.89338 | 18.55094 | 4434 ft | 191 kts | 313° |
| 2026-05-05 00:59 | -33.88271 | 18.54049 | 4719 ft | 210 kts | 325° |
| 2026-05-05 00:59 | -33.86977 | 18.53052 | 4967 ft | 230 kts | 326° |
| 2026-05-05 01:00 | -33.85572 | 18.51981 | 5116 ft | 248 kts | 326° |
| 2026-05-05 01:00 | -33.84197 | 18.50649 | 5312 ft | 259 kts | 308° |
| 2026-05-05 01:00 | -33.83355 | 18.48749 | 5816 ft | 260 kts | 284° |
| 2026-05-05 01:00 | -33.83261 | 18.46586 | 6331 ft | 262 kts | 260° |
| 2026-05-05 01:01 | -33.83750 | 18.44467 | 6824 ft | 265 kts | 254° |
| 2026-05-05 01:01 | -33.84265 | 18.42334 | 7347 ft | 266 kts | 255° |
| 2026-05-05 01:01 | -33.84764 | 18.40186 | 7888 ft | 267 kts | 255° |
| 2026-05-05 01:01 | -33.85253 | 18.38014 | 8428 ft | 269 kts | 256° |
| 2026-05-05 01:02 | -33.85733 | 18.35855 | 8928 ft | 272 kts | 256° |
| 2026-05-05 01:02 | -33.86221 | 18.33651 | 9479 ft | 273 kts | 256° |
| 2026-05-05 01:02 | -33.86713 | 18.31427 | 9979 ft | 276 kts | 256° |
| 2026-05-05 01:02 | -33.87214 | 18.29159 | 10272 ft | 287 kts | 256° |
| 2026-05-05 01:03 | -33.87742 | 18.26771 | 10405 ft | 303 kts | 255° |
| 2026-05-05 01:03 | -33.88298 | 18.24258 | 10547 ft | 317 kts | 255° |
| 2026-05-05 01:03 | -33.88876 | 18.21645 | 10842 ft | 325 kts | 255° |
| 2026-05-05 01:03 | -33.89459 | 18.19010 | 11333 ft | 327 kts | 255° |
| 2026-05-05 01:04 | -33.90047 | 18.16344 | 11790 ft | 330 kts | 255° |
| 2026-05-05 01:04 | -33.91228 | 18.10982 | 12738 ft | 335 kts | 255° |
| 2026-05-05 01:04 | -33.91829 | 18.08247 | 13240 ft | 336 kts | 255° |
| 2026-05-05 01:05 | -33.92425 | 18.05531 | 13648 ft | 340 kts | 255° |
| 2026-05-05 01:05 | -33.93033 | 18.02759 | 14076 ft | 343 kts | 255° |
| 2026-05-05 01:05 | -33.93600 | 17.99992 | 14481 ft | 345 kts | 259° |
| 2026-05-05 01:05 | -33.94022 | 17.97136 | 14914 ft | 346 kts | 260° |
| 2026-05-05 01:06 | -33.94456 | 17.94270 | 15392 ft | 347 kts | 259° |
| 2026-05-05 01:06 | -33.94896 | 17.91411 | 15719 ft | 351 kts | 259° |
| 2026-05-05 01:06 | -33.95345 | 17.88503 | 16126 ft | 354 kts | 259° |
| 2026-05-05 01:06 | -33.95797 | 17.85572 | 16585 ft | 354 kts | 260° |
| 2026-05-05 01:07 | -33.96242 | 17.82669 | 16984 ft | 357 kts | 260° |
| 2026-05-05 01:07 | -33.96693 | 17.79718 | 17411 ft | 359 kts | 260° |
| 2026-05-05 01:07 | -33.97150 | 17.76727 | 17785 ft | 362 kts | 260° |
| 2026-05-05 01:07 | -33.97605 | 17.73729 | 18125 ft | 366 kts | 259° |
| 2026-05-05 01:08 | -33.98054 | 17.70735 | 18488 ft | 368 kts | 258° |
| 2026-05-05 01:08 | -33.98517 | 17.67684 | 18908 ft | 368 kts | 258° |
| 2026-05-05 01:08 | -33.98825 | 17.65671 | 19108 ft | 371 kts | 258° |
| 2026-05-05 01:08 | -33.99293 | 17.62595 | 19442 ft | 373 kts | 259° |
| 2026-05-05 01:09 | -33.99915 | 17.58489 | 19941 ft | 375 kts | 259° |
| 2026-05-05 01:09 | -34.00232 | 17.56388 | 20194 ft | 377 kts | 259° |
| 2026-05-05 01:09 | -34.00693 | 17.53328 | 20631 ft | 376 kts | 259° |
| 2026-05-05 01:09 | -34.01164 | 17.50194 | 20890 ft | 381 kts | 259° |
| 2026-05-05 01:10 | -34.01640 | 17.47021 | 21195 ft | 385 kts | 259° |
| 2026-05-05 01:10 | -34.02116 | 17.43843 | 21648 ft | 385 kts | 259° |
| 2026-05-05 01:10 | -34.02593 | 17.40654 | 22034 ft | 386 kts | 259° |
| 2026-05-05 01:10 | -34.03062 | 17.37481 | 22292 ft | 392 kts | 258° |
| 2026-05-05 01:11 | -34.03548 | 17.34212 | 22526 ft | 397 kts | 258° |
| 2026-05-05 01:11 | -34.04033 | 17.30956 | 22969 ft | 397 kts | 258° |
| 2026-05-05 01:11 | -34.04522 | 17.27669 | 23354 ft | 399 kts | 258° |
| 2026-05-05 01:11 | -34.05016 | 17.24346 | 23644 ft | 402 kts | 258° |
| 2026-05-05 01:12 | -34.05509 | 17.21017 | 23961 ft | 404 kts | 259° |
| 2026-05-05 01:12 | -34.06002 | 17.17674 | 24305 ft | 405 kts | 258° |
| 2026-05-05 01:12 | -34.06488 | 17.14368 | 24686 ft | 404 kts | 259° |
| 2026-05-05 01:12 | -34.06984 | 17.10996 | 24938 ft | 408 kts | 259° |
| 2026-05-05 01:13 | -34.07478 | 17.07606 | 25208 ft | 410 kts | 260° |
| 2026-05-05 01:13 | -34.07603 | 17.04189 | 25525 ft | 413 kts | 272° |
| 2026-05-05 01:13 | -34.07126 | 17.00719 | 25642 ft | 423 kts | 283° |
| 2026-05-05 01:13 | -34.06171 | 16.97381 | 25977 ft | 426 kts | 291° |
| 2026-05-05 01:14 | -34.04788 | 16.94174 | 26378 ft | 427 kts | 300° |
| 2026-05-05 01:14 | -34.03258 | 16.91144 | 26724 ft | 427 kts | 299° |
| 2026-05-05 01:14 | -34.01742 | 16.88043 | 27002 ft | 429 kts | 298° |
| 2026-05-05 01:14 | -34.00235 | 16.84920 | 27312 ft | 430 kts | 298° |
| 2026-05-05 01:15 | -33.98743 | 16.81827 | 27605 ft | 432 kts | 298° |
| 2026-05-05 01:15 | -33.97220 | 16.78675 | 27898 ft | 433 kts | 298° |
| 2026-05-05 01:15 | -33.95692 | 16.75524 | 28188 ft | 435 kts | 298° |
| 2026-05-05 01:15 | -33.94181 | 16.72413 | 28471 ft | 436 kts | 298° |
| 2026-05-05 01:16 | -33.92638 | 16.69239 | 28730 ft | 438 kts | 298° |
| 2026-05-05 01:16 | -33.91084 | 16.66050 | 28842 ft | 444 kts | 298° |
| 2026-05-05 01:16 | -33.89518 | 16.62836 | 29128 ft | 444 kts | 298° |
| 2026-05-05 01:16 | -33.87948 | 16.59614 | 29397 ft | 446 kts | 298° |
| 2026-05-05 01:17 | -33.86395 | 16.56432 | 29674 ft | 447 kts | 298° |
| 2026-05-05 01:17 | -33.84805 | 16.53178 | 30003 ft | 447 kts | 298° |
| 2026-05-05 01:17 | -33.83222 | 16.49941 | 30223 ft | 449 kts | 298° |
| 2026-05-05 01:17 | -33.81648 | 16.46723 | 30430 ft | 451 kts | 298° |
| 2026-05-05 01:18 | -33.80050 | 16.43461 | 30736 ft | 448 kts | 298° |
| 2026-05-05 01:18 | -33.78514 | 16.40334 | 31489 ft | 416 kts | 298° |
| 2026-05-05 01:18 | -33.77099 | 16.37457 | 31858 ft | 390 kts | 298° |
| 2026-05-05 01:18 | -33.75759 | 16.34732 | 32263 ft | 365 kts | 298° |
| 2026-05-05 01:19 | -33.73250 | 16.29622 | 31964 ft | 353 kts | 297° |
| 2026-05-05 01:19 | -33.72001 | 16.27075 | 31687 ft | 351 kts | 297° |
| 2026-05-05 01:19 | -33.70761 | 16.24553 | 31388 ft | 349 kts | 297° |
| 2026-05-05 01:20 | -33.69539 | 16.22071 | 31114 ft | 347 kts | 297° |
| 2026-05-05 01:20 | -33.68304 | 16.19567 | 30839 ft | 346 kts | 297° |
| 2026-05-05 01:20 | -33.67089 | 16.17105 | 30579 ft | 344 kts | 297° |
| 2026-05-05 01:20 | -33.65868 | 16.14632 | 30339 ft | 342 kts | 297° |
| 2026-05-05 01:21 | -33.64677 | 16.12224 | 30172 ft | 338 kts | 297° |
| 2026-05-05 01:21 | -33.63477 | 16.09799 | 29899 ft | 336 kts | 297° |
| 2026-05-05 01:21 | -33.62283 | 16.07387 | 29613 ft | 335 kts | 297° |
| 2026-05-05 01:21 | -33.61108 | 16.05013 | 29310 ft | 333 kts | 297° |
| 2026-05-05 01:22 | -33.59920 | 16.02616 | 29022 ft | 332 kts | 297° |
| 2026-05-05 01:22 | -33.58738 | 16.00233 | 28750 ft | 331 kts | 297° |
| 2026-05-05 01:22 | -33.57569 | 15.97879 | 28405 ft | 333 kts | 296° |
| 2026-05-05 01:22 | -33.56380 | 15.95483 | 28110 ft | 333 kts | 296° |
| 2026-05-05 01:23 | -33.55193 | 15.93093 | 27867 ft | 332 kts | 296° |
| 2026-05-05 01:23 | -33.54012 | 15.90719 | 27663 ft | 330 kts | 296° |
| 2026-05-05 01:23 | -33.52842 | 15.88366 | 27440 ft | 329 kts | 296° |
| 2026-05-05 01:23 | -33.51665 | 15.86002 | 27231 ft | 329 kts | 296° |
| 2026-05-05 01:24 | -33.50505 | 15.83674 | 27051 ft | 327 kts | 296° |
| 2026-05-05 01:24 | -33.49334 | 15.81325 | 26846 ft | 327 kts | 296° |
| 2026-05-05 01:24 | -33.48162 | 15.78974 | 26649 ft | 331 kts | 296° |
| 2026-05-05 01:24 | -33.46967 | 15.76572 | 26614 ft | 340 kts | 296° |
| 2026-05-05 01:25 | -33.45739 | 15.74110 | 26661 ft | 347 kts | 296° |
| 2026-05-05 01:25 | -33.44494 | 15.71629 | 26963 ft | 347 kts | 296° |
| 2026-05-05 01:25 | -33.43272 | 15.69176 | 27138 ft | 350 kts | 295° |
| 2026-05-05 01:25 | -33.42053 | 15.66636 | 27259 ft | 355 kts | 295° |
| 2026-05-05 01:26 | -33.40779 | 15.64067 | 27307 ft | 362 kts | 297° |
| 2026-05-05 01:26 | -33.39450 | 15.61462 | 27321 ft | 371 kts | 296° |
| 2026-05-05 01:26 | -33.38094 | 15.58803 | 27392 ft | 378 kts | 296° |
| 2026-05-05 01:26 | -33.36718 | 15.56088 | 27463 ft | 384 kts | 296° |
| 2026-05-05 01:27 | -33.35325 | 15.53325 | 27526 ft | 391 kts | 296° |
| 2026-05-05 01:27 | -33.33911 | 15.50516 | 27687 ft | 396 kts | 296° |
| 2026-05-05 01:27 | -33.32477 | 15.47667 | 27780 ft | 403 kts | 296° |
| 2026-05-05 01:27 | -33.31023 | 15.44779 | 27993 ft | 406 kts | 297° |
| 2026-05-05 01:28 | -33.29558 | 15.41876 | 28291 ft | 407 kts | 297° |
| 2026-05-05 01:28 | -33.28107 | 15.39002 | 28560 ft | 409 kts | 297° |
| 2026-05-05 01:28 | -33.26633 | 15.36082 | 28841 ft | 410 kts | 297° |
| 2026-05-05 01:28 | -33.25154 | 15.33154 | 29127 ft | 411 kts | 297° |
| 2026-05-05 01:29 | -33.23676 | 15.30233 | 29534 ft | 410 kts | 297° |
| 2026-05-05 01:29 | -33.22208 | 15.27334 | 29688 ft | 414 kts | 296° |
| 2026-05-05 01:29 | -33.20703 | 15.24360 | 29798 ft | 419 kts | 296° |
| 2026-05-05 01:29 | -33.19190 | 15.21371 | 30087 ft | 420 kts | 296° |
| 2026-05-05 01:30 | -33.17673 | 15.18379 | 30301 ft | 422 kts | 296° |
| 2026-05-05 01:30 | -33.16142 | 15.15363 | 30511 ft | 424 kts | 296° |
| 2026-05-05 01:30 | -33.14635 | 15.12396 | 30736 ft | 425 kts | 296° |
| 2026-05-05 01:30 | -33.13093 | 15.09364 | 30946 ft | 427 kts | 297° |
| 2026-05-05 01:31 | -33.11562 | 15.06354 | 31159 ft | 429 kts | 297° |
| 2026-05-05 01:31 | -33.10460 | 15.04189 | 31305 ft | 430 kts | 297° |